sensor_id;sensor_type;location;lat;lon;timestamp;P1;durP1;ratioP1;P2;durP2;ratioP2
9819;SDS011;4949;48.482;9.206;2023-05-02T00:02:02;4.50;;;4.00;;
9819;SDS011;4949;48.482;9.206;2023-05-02T00:07:03;5.10;;;4.70;;
9819;SDS011;4949;48.482;9.206;2023-05-02T00:12:05;7.27;;;6.57;;
9819;SDS011;4949;48.482;9.206;2023-05-02T00:17:05;4.27;;;3.87;;
9819;SDS011;4949;48.482;9.206;2023-05-02T00:22:06;4.77;;;4.43;;
9819;SDS011;4949;48.482;9.206;2023-05-02T00:27:07;4.47;;;4.07;;
9819;SDS011;4949;48.482;9.206;2023-05-02T00:32:08;5.13;;;4.67;;
9819;SDS011;4949;48.482;9.206;2023-05-02T00:37:08;4.30;;;4.00;;
9819;SDS011;4949;48.482;9.206;2023-05-02T00:42:09;4.90;;;4.60;;
9819;SDS011;4949;48.482;9.206;2023-05-02T00:47:10;4.53;;;4.20;;
9819;SDS011;4949;48.482;9.206;2023-05-02T00:52:11;4.60;;;4.20;;
9819;SDS011;4949;48.482;9.206;2023-05-02T00:57:14;7.33;;;6.00;;
9819;SDS011;4949;48.482;9.206;2023-05-02T01:02:24;4.93;;;4.43;;
9819;SDS011;4949;48.482;9.206;2023-05-02T01:07:45;6.40;;;4.53;;
9819;SDS011;4949;48.482;9.206;2023-05-02T01:13:08;5.33;;;4.83;;
9819;SDS011;4949;48.482;9.206;2023-05-02T01:18:21;5.17;;;4.77;;
9819;SDS011;4949;48.482;9.206;2023-05-02T01:23:29;4.90;;;4.50;;
9819;SDS011;4949;48.482;9.206;2023-05-02T01:34:02;5.30;;;4.80;;
9819;SDS011;4949;48.482;9.206;2023-05-02T01:39:09;5.37;;;4.90;;
9819;SDS011;4949;48.482;9.206;2023-05-02T01:44:13;5.63;;;5.13;;
9819;SDS011;4949;48.482;9.206;2023-05-02T01:49:16;4.63;;;4.23;;
9819;SDS011;4949;48.482;9.206;2023-05-02T01:54:19;5.77;;;5.10;;
9819;SDS011;4949;48.482;9.206;2023-05-02T01:59:22;5.67;;;5.17;;
9819;SDS011;4949;48.482;9.206;2023-05-02T02:04:24;5.60;;;4.40;;
9819;SDS011;4949;48.482;9.206;2023-05-02T02:09:29;5.40;;;5.00;;
9819;SDS011;4949;48.482;9.206;2023-05-02T02:14:34;5.70;;;5.20;;
9819;SDS011;4949;48.482;9.206;2023-05-02T02:19:38;4.90;;;4.60;;
9819;SDS011;4949;48.482;9.206;2023-05-02T02:24:43;5.17;;;4.73;;
9819;SDS011;4949;48.482;9.206;2023-05-02T02:29:46;5.33;;;4.93;;
9819;SDS011;4949;48.482;9.206;2023-05-02T02:34:47;5.23;;;4.73;;
9819;SDS011;4949;48.482;9.206;2023-05-02T02:51:10;7.10;;;6.40;;
9819;SDS011;4949;48.482;9.206;2023-05-02T02:56:29;6.10;;;5.47;;
9819;SDS011;4949;48.482;9.206;2023-05-02T03:01:41;6.17;;;5.67;;
9819;SDS011;4949;48.482;9.206;2023-05-02T03:06:47;6.17;;;5.57;;
9819;SDS011;4949;48.482;9.206;2023-05-02T03:11:48;7.13;;;6.30;;
9819;SDS011;4949;48.482;9.206;2023-05-02T03:16:48;6.50;;;6.00;;
9819;SDS011;4949;48.482;9.206;2023-05-02T03:21:50;5.00;;;4.60;;
9819;SDS011;4949;48.482;9.206;2023-05-02T03:26:53;5.40;;;5.00;;
9819;SDS011;4949;48.482;9.206;2023-05-02T03:31:55;6.37;;;5.73;;
9819;SDS011;4949;48.482;9.206;2023-05-02T03:36:56;6.43;;;5.83;;
9819;SDS011;4949;48.482;9.206;2023-05-02T03:41:56;6.37;;;5.80;;
9819;SDS011;4949;48.482;9.206;2023-05-02T03:47:00;7.07;;;6.57;;
9819;SDS011;4949;48.482;9.206;2023-05-02T03:52:01;6.70;;;6.20;;
9819;SDS011;4949;48.482;9.206;2023-05-02T03:57:07;7.73;;;7.03;;
9819;SDS011;4949;48.482;9.206;2023-05-02T04:02:08;6.17;;;5.67;;
9819;SDS011;4949;48.482;9.206;2023-05-02T04:07:08;7.13;;;6.53;;
9819;SDS011;4949;48.482;9.206;2023-05-02T04:12:17;6.43;;;5.93;;
9819;SDS011;4949;48.482;9.206;2023-05-02T04:17:19;7.63;;;7.00;;
9819;SDS011;4949;48.482;9.206;2023-05-02T04:22:25;7.63;;;6.93;;
9819;SDS011;4949;48.482;9.206;2023-05-02T04:27:28;8.10;;;7.40;;
9819;SDS011;4949;48.482;9.206;2023-05-02T04:32:29;7.70;;;7.10;;
9819;SDS011;4949;48.482;9.206;2023-05-02T04:37:34;6.20;;;5.70;;
9819;SDS011;4949;48.482;9.206;2023-05-02T04:42:35;9.03;;;8.23;;
9819;SDS011;4949;48.482;9.206;2023-05-02T04:47:35;7.77;;;7.07;;
9819;SDS011;4949;48.482;9.206;2023-05-02T04:52:36;8.23;;;7.43;;
9819;SDS011;4949;48.482;9.206;2023-05-02T04:57:37;7.90;;;7.13;;
9819;SDS011;4949;48.482;9.206;2023-05-02T05:02:39;7.60;;;7.00;;
9819;SDS011;4949;48.482;9.206;2023-05-02T05:07:39;12.53;;;7.87;;
9819;SDS011;4949;48.482;9.206;2023-05-02T05:12:40;15.10;;;8.90;;
9819;SDS011;4949;48.482;9.206;2023-05-02T05:17:43;8.60;;;7.80;;
9819;SDS011;4949;48.482;9.206;2023-05-02T05:22:44;9.50;;;8.70;;
9819;SDS011;4949;48.482;9.206;2023-05-02T05:27:45;9.90;;;8.57;;
9819;SDS011;4949;48.482;9.206;2023-05-02T05:32:48;9.83;;;9.03;;
9819;SDS011;4949;48.482;9.206;2023-05-02T05:37:48;13.50;;;10.20;;
9819;SDS011;4949;48.482;9.206;2023-05-02T05:42:52;10.07;;;8.73;;
9819;SDS011;4949;48.482;9.206;2023-05-02T05:47:54;10.13;;;9.23;;
9819;SDS011;4949;48.482;9.206;2023-05-02T05:52:55;9.80;;;8.90;;
9819;SDS011;4949;48.482;9.206;2023-05-02T05:57:56;8.43;;;7.50;;
9819;SDS011;4949;48.482;9.206;2023-05-02T06:02:59;10.80;;;9.80;;
9819;SDS011;4949;48.482;9.206;2023-05-02T06:08:00;10.53;;;9.53;;
9819;SDS011;4949;48.482;9.206;2023-05-02T06:13:01;10.43;;;9.43;;
9819;SDS011;4949;48.482;9.206;2023-05-02T06:18:01;10.23;;;9.23;;
9819;SDS011;4949;48.482;9.206;2023-05-02T06:23:04;10.10;;;9.20;;
9819;SDS011;4949;48.482;9.206;2023-05-02T06:28:05;12.50;;;11.30;;
9819;SDS011;4949;48.482;9.206;2023-05-02T06:33:06;11.63;;;10.63;;
9819;SDS011;4949;48.482;9.206;2023-05-02T06:38:07;13.00;;;11.70;;
9819;SDS011;4949;48.482;9.206;2023-05-02T06:43:13;12.30;;;11.10;;
9819;SDS011;4949;48.482;9.206;2023-05-02T06:48:17;11.80;;;10.67;;
9819;SDS011;4949;48.482;9.206;2023-05-02T06:53:17;11.00;;;10.03;;
9819;SDS011;4949;48.482;9.206;2023-05-02T06:58:18;11.40;;;10.40;;
9819;SDS011;4949;48.482;9.206;2023-05-02T07:03:22;11.77;;;10.73;;
9819;SDS011;4949;48.482;9.206;2023-05-02T07:08:25;10.40;;;9.60;;
9819;SDS011;4949;48.482;9.206;2023-05-02T07:13:30;10.50;;;9.60;;
9819;SDS011;4949;48.482;9.206;2023-05-02T07:18:33;9.47;;;8.57;;
9819;SDS011;4949;48.482;9.206;2023-05-02T07:23:36;9.20;;;8.30;;
9819;SDS011;4949;48.482;9.206;2023-05-02T07:28:37;11.47;;;8.70;;
9819;SDS011;4949;48.482;9.206;2023-05-02T07:33:38;9.23;;;8.43;;
9819;SDS011;4949;48.482;9.206;2023-05-02T07:38:43;9.93;;;8.93;;
9819;SDS011;4949;48.482;9.206;2023-05-02T07:43:46;9.30;;;8.50;;
9819;SDS011;4949;48.482;9.206;2023-05-02T07:48:46;10.00;;;8.80;;
9819;SDS011;4949;48.482;9.206;2023-05-02T07:53:48;9.20;;;8.50;;
9819;SDS011;4949;48.482;9.206;2023-05-02T07:58:51;10.07;;;9.07;;
9819;SDS011;4949;48.482;9.206;2023-05-02T08:03:52;12.03;;;10.70;;
9819;SDS011;4949;48.482;9.206;2023-05-02T08:08:56;11.30;;;10.30;;
9819;SDS011;4949;48.482;9.206;2023-05-02T08:13:59;12.83;;;11.57;;
9819;SDS011;4949;48.482;9.206;2023-05-02T08:19:02;12.73;;;11.53;;
9819;SDS011;4949;48.482;9.206;2023-05-02T08:24:03;12.50;;;11.30;;
9819;SDS011;4949;48.482;9.206;2023-05-02T08:29:04;13.03;;;11.83;;
9819;SDS011;4949;48.482;9.206;2023-05-02T08:34:10;13.53;;;11.93;;
9819;SDS011;4949;48.482;9.206;2023-05-02T08:39:11;13.50;;;12.20;;
9819;SDS011;4949;48.482;9.206;2023-05-02T08:44:11;14.80;;;13.40;;
9819;SDS011;4949;48.482;9.206;2023-05-02T08:49:15;14.83;;;13.50;;
9819;SDS011;4949;48.482;9.206;2023-05-02T08:54:18;16.67;;;15.07;;
9819;SDS011;4949;48.482;9.206;2023-05-02T08:59:24;17.20;;;15.60;;
9819;SDS011;4949;48.482;9.206;2023-05-02T09:04:30;18.27;;;15.60;;
9819;SDS011;4949;48.482;9.206;2023-05-02T09:09:34;17.90;;;16.20;;
9819;SDS011;4949;48.482;9.206;2023-05-02T09:14:38;18.10;;;16.37;;
9819;SDS011;4949;48.482;9.206;2023-05-02T09:19:41;17.07;;;15.27;;
9819;SDS011;4949;48.482;9.206;2023-05-02T09:24:41;18.73;;;16.93;;
9819;SDS011;4949;48.482;9.206;2023-05-02T09:29:45;15.40;;;14.00;;
9819;SDS011;4949;48.482;9.206;2023-05-02T09:35:05;17.30;;;15.60;;
9819;SDS011;4949;48.482;9.206;2023-05-02T09:40:12;18.40;;;16.53;;
9819;SDS011;4949;48.482;9.206;2023-05-02T09:45:23;18.57;;;16.93;;
9819;SDS011;4949;48.482;9.206;2023-05-02T09:50:32;17.17;;;15.67;;
9819;SDS011;4949;48.482;9.206;2023-05-02T09:55:37;19.07;;;17.27;;
9819;SDS011;4949;48.482;9.206;2023-05-02T10:00:42;18.63;;;17.03;;
9819;SDS011;4949;48.482;9.206;2023-05-02T10:05:44;18.13;;;16.43;;
9819;SDS011;4949;48.482;9.206;2023-05-02T10:10:51;21.40;;;19.40;;
9819;SDS011;4949;48.482;9.206;2023-05-02T10:15:59;19.43;;;17.80;;
9819;SDS011;4949;48.482;9.206;2023-05-02T10:21:07;19.17;;;17.40;;
9819;SDS011;4949;48.482;9.206;2023-05-02T10:26:14;18.70;;;16.93;;
9819;SDS011;4949;48.482;9.206;2023-05-02T10:31:16;17.07;;;15.37;;
9819;SDS011;4949;48.482;9.206;2023-05-02T10:36:19;17.00;;;15.43;;
9819;SDS011;4949;48.482;9.206;2023-05-02T10:41:24;14.80;;;13.30;;
9819;SDS011;4949;48.482;9.206;2023-05-02T10:46:35;16.90;;;15.33;;
9819;SDS011;4949;48.482;9.206;2023-05-02T10:51:42;18.17;;;16.57;;
9819;SDS011;4949;48.482;9.206;2023-05-02T11:01:59;14.70;;;13.50;;
9819;SDS011;4949;48.482;9.206;2023-05-02T11:12:06;14.67;;;13.37;;
9819;SDS011;4949;48.482;9.206;2023-05-02T11:17:08;14.37;;;12.97;;
9819;SDS011;4949;48.482;9.206;2023-05-02T11:37:54;15.00;;;13.50;;
9819;SDS011;4949;48.482;9.206;2023-05-02T11:43:13;14.60;;;13.30;;
9819;SDS011;4949;48.482;9.206;2023-05-02T11:48:17;13.10;;;11.80;;
9819;SDS011;4949;48.482;9.206;2023-05-02T11:53:22;16.50;;;14.90;;
9819;SDS011;4949;48.482;9.206;2023-05-02T11:58:25;13.47;;;12.37;;
9819;SDS011;4949;48.482;9.206;2023-05-02T12:03:29;14.10;;;12.80;;
9819;SDS011;4949;48.482;9.206;2023-05-02T12:08:32;13.17;;;12.07;;
9819;SDS011;4949;48.482;9.206;2023-05-02T12:13:35;12.87;;;11.67;;
9819;SDS011;4949;48.482;9.206;2023-05-02T12:18:48;12.13;;;11.03;;
9819;SDS011;4949;48.482;9.206;2023-05-02T12:23:49;12.70;;;11.60;;
9819;SDS011;4949;48.482;9.206;2023-05-02T12:28:50;12.50;;;11.43;;
9819;SDS011;4949;48.482;9.206;2023-05-02T12:33:53;13.03;;;11.73;;
9819;SDS011;4949;48.482;9.206;2023-05-02T12:38:58;13.57;;;12.47;;
9819;SDS011;4949;48.482;9.206;2023-05-02T12:44:01;12.00;;;11.00;;
9819;SDS011;4949;48.482;9.206;2023-05-02T12:49:08;11.67;;;10.63;;
9819;SDS011;4949;48.482;9.206;2023-05-02T12:54:18;10.20;;;9.40;;
9819;SDS011;4949;48.482;9.206;2023-05-02T12:59:26;11.40;;;10.30;;
9819;SDS011;4949;48.482;9.206;2023-05-02T13:04:32;11.33;;;10.40;;
9819;SDS011;4949;48.482;9.206;2023-05-02T13:09:38;9.73;;;8.93;;
9819;SDS011;4949;48.482;9.206;2023-05-02T13:14:39;10.70;;;9.80;;
9819;SDS011;4949;48.482;9.206;2023-05-02T13:19:40;10.93;;;9.93;;
9819;SDS011;4949;48.482;9.206;2023-05-02T13:24:43;11.50;;;10.13;;
9819;SDS011;4949;48.482;9.206;2023-05-02T13:29:50;12.03;;;10.83;;
9819;SDS011;4949;48.482;9.206;2023-05-02T13:34:58;9.80;;;9.10;;
9819;SDS011;4949;48.482;9.206;2023-05-02T13:39:59;11.67;;;10.60;;
9819;SDS011;4949;48.482;9.206;2023-05-02T13:45:00;12.00;;;10.83;;
9819;SDS011;4949;48.482;9.206;2023-05-02T13:50:04;12.33;;;11.03;;
9819;SDS011;4949;48.482;9.206;2023-05-02T13:55:06;11.67;;;10.57;;
9819;SDS011;4949;48.482;9.206;2023-05-02T14:00:07;13.30;;;12.10;;
9819;SDS011;4949;48.482;9.206;2023-05-02T14:05:09;15.37;;;13.97;;
9819;SDS011;4949;48.482;9.206;2023-05-02T14:10:10;14.20;;;13.00;;
9819;SDS011;4949;48.482;9.206;2023-05-02T14:15:13;12.90;;;11.80;;
9819;SDS011;4949;48.482;9.206;2023-05-02T14:20:14;12.20;;;11.10;;
9819;SDS011;4949;48.482;9.206;2023-05-02T14:25:16;15.60;;;14.10;;
9819;SDS011;4949;48.482;9.206;2023-05-02T14:30:18;19.23;;;17.33;;
9819;SDS011;4949;48.482;9.206;2023-05-02T14:35:19;16.90;;;15.30;;
9819;SDS011;4949;48.482;9.206;2023-05-02T14:40:22;18.73;;;16.80;;
9819;SDS011;4949;48.482;9.206;2023-05-02T14:45:23;17.30;;;15.70;;
9819;SDS011;4949;48.482;9.206;2023-05-02T14:50:25;18.40;;;16.77;;
9819;SDS011;4949;48.482;9.206;2023-05-02T14:55:26;19.63;;;17.10;;
9819;SDS011;4949;48.482;9.206;2023-05-02T15:00:27;17.87;;;16.17;;
9819;SDS011;4949;48.482;9.206;2023-05-02T15:05:28;16.10;;;14.50;;
9819;SDS011;4949;48.482;9.206;2023-05-02T15:10:38;15.07;;;13.67;;
9819;SDS011;4949;48.482;9.206;2023-05-02T15:15:39;16.27;;;14.77;;
9819;SDS011;4949;48.482;9.206;2023-05-02T15:20:45;14.27;;;13.03;;
9819;SDS011;4949;48.482;9.206;2023-05-02T15:25:46;13.80;;;12.60;;
9819;SDS011;4949;48.482;9.206;2023-05-02T15:30:49;11.97;;;10.97;;
9819;SDS011;4949;48.482;9.206;2023-05-02T15:35:54;12.43;;;11.33;;
9819;SDS011;4949;48.482;9.206;2023-05-02T15:40:59;12.43;;;11.23;;
9819;SDS011;4949;48.482;9.206;2023-05-02T15:46:00;10.70;;;9.70;;
9819;SDS011;4949;48.482;9.206;2023-05-02T15:51:01;11.27;;;10.17;;
9819;SDS011;4949;48.482;9.206;2023-05-02T15:56:07;14.37;;;12.87;;
9819;SDS011;4949;48.482;9.206;2023-05-02T16:01:11;13.63;;;11.83;;
9819;SDS011;4949;48.482;9.206;2023-05-02T16:06:12;12.40;;;11.20;;
9819;SDS011;4949;48.482;9.206;2023-05-02T16:11:14;10.20;;;9.20;;
9819;SDS011;4949;48.482;9.206;2023-05-02T16:16:17;10.33;;;9.37;;
9819;SDS011;4949;48.482;9.206;2023-05-02T16:21:20;9.77;;;8.87;;
9819;SDS011;4949;48.482;9.206;2023-05-02T16:26:24;9.57;;;8.43;;
9819;SDS011;4949;48.482;9.206;2023-05-02T16:31:24;8.90;;;8.03;;
9819;SDS011;4949;48.482;9.206;2023-05-02T16:36:30;11.00;;;9.90;;
9819;SDS011;4949;48.482;9.206;2023-05-02T16:41:34;11.23;;;9.60;;
9819;SDS011;4949;48.482;9.206;2023-05-02T16:46:35;10.10;;;9.20;;
9819;SDS011;4949;48.482;9.206;2023-05-02T16:51:36;8.73;;;7.93;;
9819;SDS011;4949;48.482;9.206;2023-05-02T16:56:37;8.37;;;7.57;;
9819;SDS011;4949;48.482;9.206;2023-05-02T17:01:37;10.30;;;9.20;;
9819;SDS011;4949;48.482;9.206;2023-05-02T17:06:38;8.50;;;7.63;;
9819;SDS011;4949;48.482;9.206;2023-05-02T17:11:41;10.13;;;8.30;;
9819;SDS011;4949;48.482;9.206;2023-05-02T17:16:44;7.73;;;7.00;;
9819;SDS011;4949;48.482;9.206;2023-05-02T17:21:45;7.07;;;6.37;;
9819;SDS011;4949;48.482;9.206;2023-05-02T17:26:46;8.97;;;5.50;;
9819;SDS011;4949;48.482;9.206;2023-05-02T17:31:50;6.23;;;5.63;;
9819;SDS011;4949;48.482;9.206;2023-05-02T17:36:53;6.43;;;5.83;;
9819;SDS011;4949;48.482;9.206;2023-05-02T17:41:54;5.50;;;5.10;;
9819;SDS011;4949;48.482;9.206;2023-05-02T17:46:57;7.00;;;5.40;;
9819;SDS011;4949;48.482;9.206;2023-05-02T17:51:57;5.57;;;5.03;;
9819;SDS011;4949;48.482;9.206;2023-05-02T17:56:58;5.67;;;4.93;;
9819;SDS011;4949;48.482;9.206;2023-05-02T18:02:01;7.33;;;4.30;;
9819;SDS011;4949;48.482;9.206;2023-05-02T18:07:02;5.03;;;4.57;;
9819;SDS011;4949;48.482;9.206;2023-05-02T18:12:05;5.27;;;4.60;;
9819;SDS011;4949;48.482;9.206;2023-05-02T18:17:09;6.83;;;5.30;;
9819;SDS011;4949;48.482;9.206;2023-05-02T18:22:10;5.77;;;5.27;;
9819;SDS011;4949;48.482;9.206;2023-05-02T18:27:15;5.47;;;5.00;;
9819;SDS011;4949;48.482;9.206;2023-05-02T18:32:16;6.40;;;5.50;;
9819;SDS011;4949;48.482;9.206;2023-05-02T18:37:17;6.80;;;6.00;;
9819;SDS011;4949;48.482;9.206;2023-05-02T18:42:18;5.43;;;4.93;;
9819;SDS011;4949;48.482;9.206;2023-05-02T18:47:18;6.63;;;6.00;;
9819;SDS011;4949;48.482;9.206;2023-05-02T18:52:23;6.70;;;6.10;;
9819;SDS011;4949;48.482;9.206;2023-05-02T18:57:26;6.90;;;5.93;;
9819;SDS011;4949;48.482;9.206;2023-05-02T19:02:27;5.90;;;5.40;;
9819;SDS011;4949;48.482;9.206;2023-05-02T19:07:28;6.90;;;6.30;;
9819;SDS011;4949;48.482;9.206;2023-05-02T19:12:28;6.37;;;5.60;;
9819;SDS011;4949;48.482;9.206;2023-05-02T19:17:29;6.90;;;6.00;;
9819;SDS011;4949;48.482;9.206;2023-05-02T19:22:31;8.50;;;6.20;;
9819;SDS011;4949;48.482;9.206;2023-05-02T19:27:33;10.07;;;6.97;;
9819;SDS011;4949;48.482;9.206;2023-05-02T19:32:34;7.23;;;6.23;;
9819;SDS011;4949;48.482;9.206;2023-05-02T19:37:37;8.40;;;6.50;;
9819;SDS011;4949;48.482;9.206;2023-05-02T19:42:40;6.27;;;5.67;;
9819;SDS011;4949;48.482;9.206;2023-05-02T19:47:41;7.20;;;6.50;;
9819;SDS011;4949;48.482;9.206;2023-05-02T19:53:14;7.80;;;7.07;;
9819;SDS011;4949;48.482;9.206;2023-05-02T19:58:27;7.10;;;6.40;;
9819;SDS011;4949;48.482;9.206;2023-05-02T20:03:39;7.43;;;6.53;;
9819;SDS011;4949;48.482;9.206;2023-05-02T20:09:00;7.53;;;6.27;;
9819;SDS011;4949;48.482;9.206;2023-05-02T20:14:03;8.43;;;7.63;;
9819;SDS011;4949;48.482;9.206;2023-05-02T20:19:12;10.13;;;7.47;;
9819;SDS011;4949;48.482;9.206;2023-05-02T20:24:17;8.90;;;7.73;;
9819;SDS011;4949;48.482;9.206;2023-05-02T20:29:53;8.03;;;7.23;;
9819;SDS011;4949;48.482;9.206;2023-05-02T20:40:29;8.53;;;6.97;;
9819;SDS011;4949;48.482;9.206;2023-05-02T20:45:35;8.97;;;8.07;;
9819;SDS011;4949;48.482;9.206;2023-05-02T20:50:51;15.50;;;13.83;;
9819;SDS011;4949;48.482;9.206;2023-05-02T20:55:58;10.77;;;9.30;;
9819;SDS011;4949;48.482;9.206;2023-05-02T21:01:02;8.67;;;7.80;;
9819;SDS011;4949;48.482;9.206;2023-05-02T21:06:02;7.80;;;7.00;;
9819;SDS011;4949;48.482;9.206;2023-05-02T21:11:14;10.30;;;7.87;;
9819;SDS011;4949;48.482;9.206;2023-05-02T21:16:16;8.33;;;7.43;;
9819;SDS011;4949;48.482;9.206;2023-05-02T21:21:18;9.90;;;7.53;;
9819;SDS011;4949;48.482;9.206;2023-05-02T21:26:19;11.10;;;7.67;;
9819;SDS011;4949;48.482;9.206;2023-05-02T21:31:20;7.87;;;7.13;;
9819;SDS011;4949;48.482;9.206;2023-05-02T21:36:23;8.23;;;7.13;;
9819;SDS011;4949;48.482;9.206;2023-05-02T21:41:26;8.80;;;8.00;;
9819;SDS011;4949;48.482;9.206;2023-05-02T21:46:27;8.77;;;6.77;;
9819;SDS011;4949;48.482;9.206;2023-05-02T21:51:32;9.17;;;6.20;;
9819;SDS011;4949;48.482;9.206;2023-05-02T21:56:33;8.93;;;8.03;;
9819;SDS011;4949;48.482;9.206;2023-05-02T22:01:36;10.70;;;8.03;;
9819;SDS011;4949;48.482;9.206;2023-05-02T22:06:40;9.03;;;7.93;;
9819;SDS011;4949;48.482;9.206;2023-05-02T22:11:43;8.40;;;7.20;;
9819;SDS011;4949;48.482;9.206;2023-05-02T22:16:43;9.30;;;7.87;;
9819;SDS011;4949;48.482;9.206;2023-05-02T22:21:45;9.50;;;7.60;;
9819;SDS011;4949;48.482;9.206;2023-05-02T22:26:47;12.27;;;9.20;;
9819;SDS011;4949;48.482;9.206;2023-05-02T22:31:49;11.20;;;7.77;;
9819;SDS011;4949;48.482;9.206;2023-05-02T22:36:51;8.70;;;7.03;;
9819;SDS011;4949;48.482;9.206;2023-05-02T22:41:53;10.03;;;7.20;;
9819;SDS011;4949;48.482;9.206;2023-05-02T22:46:58;8.20;;;7.40;;
9819;SDS011;4949;48.482;9.206;2023-05-02T22:52:02;14.03;;;9.17;;
9819;SDS011;4949;48.482;9.206;2023-05-02T22:57:07;9.47;;;6.70;;
9819;SDS011;4949;48.482;9.206;2023-05-02T23:02:08;9.43;;;6.63;;
9819;SDS011;4949;48.482;9.206;2023-05-02T23:07:11;6.33;;;5.60;;
9819;SDS011;4949;48.482;9.206;2023-05-02T23:12:11;8.90;;;7.00;;
9819;SDS011;4949;48.482;9.206;2023-05-02T23:17:12;8.03;;;7.23;;
9819;SDS011;4949;48.482;9.206;2023-05-02T23:22:13;9.43;;;6.60;;
9819;SDS011;4949;48.482;9.206;2023-05-02T23:27:17;6.63;;;6.00;;
9819;SDS011;4949;48.482;9.206;2023-05-02T23:32:18;8.47;;;6.60;;
9819;SDS011;4949;48.482;9.206;2023-05-02T23:37:20;7.30;;;6.00;;
9819;SDS011;4949;48.482;9.206;2023-05-02T23:42:21;10.30;;;7.67;;
9819;SDS011;4949;48.482;9.206;2023-05-02T23:47:24;8.63;;;6.50;;
9819;SDS011;4949;48.482;9.206;2023-05-02T23:52:27;8.43;;;7.57;;
9819;SDS011;4949;48.482;9.206;2023-05-02T23:57:33;7.53;;;6.10;;
